createdAt,value
2023-04-15T00:00:29.192Z,7.6429
2023-04-15T00:01:37.275Z,7.3143
2023-04-15T00:02:45.276Z,6.8071
2023-04-15T00:03:53.484Z,6.4857
2023-04-15T00:05:01.383Z,6.4714
2023-04-15T00:06:09.459Z,6.3214
2023-04-15T00:07:17.515Z,6.2643
2023-04-15T00:08:25.696Z,7.1857
2023-04-15T00:09:33.657Z,7.7500
2023-04-15T00:10:41.611Z,6.4857
2023-04-15T00:11:49.815Z,6.2286
2023-04-15T00:12:57.952Z,6.7071
2023-04-15T00:14:05.807Z,4.9786
2023-04-15T00:15:14.003Z,4.9643
2023-04-15T00:16:22.110Z,7.1429
2023-04-15T00:17:30.122Z,5.4643
2023-04-15T00:18:38.173Z,5.6071
2023-04-15T00:19:46.277Z,6.0143
2023-04-15T00:20:54.352Z,5.7786
2023-04-15T00:22:02.468Z,5.9643
2023-04-15T00:23:10.396Z,5.6214
2023-04-15T00:24:18.665Z,6.0357
2023-04-15T00:25:26.627Z,6.8143
2023-04-15T00:26:34.598Z,6.2286
2023-04-15T00:27:42.760Z,5.2714
2023-04-15T00:28:50.792Z,7.1357
2023-04-15T00:29:58.840Z,5.9857
2023-04-15T00:31:06.960Z,4.9143
2023-04-15T00:32:14.994Z,5.9857
2023-04-15T00:33:23.008Z,6.3786
2023-04-15T00:34:30.995Z,6.5857
2023-04-15T00:35:39.324Z,5.7500
2023-04-15T00:36:47.257Z,6.3000
2023-04-15T00:37:55.298Z,5.4714
2023-04-15T00:39:03.409Z,5.0000
2023-04-15T00:40:11.423Z,5.5571
2023-04-15T00:41:19.497Z,5.1571
2023-04-15T00:42:27.472Z,6.9714
2023-04-15T00:43:35.713Z,6.3143
2023-04-15T00:44:43.688Z,5.8714
2023-04-15T00:45:51.858Z,6.8143
2023-04-15T00:46:59.902Z,5.7143
2023-04-15T00:48:07.922Z,6.3429
2023-04-15T00:49:16.094Z,5.9357
2023-04-15T00:50:24.027Z,7.9357
2023-04-15T00:51:32.264Z,6.4714
2023-04-15T00:52:40.190Z,5.7214
2023-04-15T00:53:48.237Z,6.3500
2023-04-15T00:54:56.344Z,5.9214
2023-04-15T00:56:04.393Z,7.1357
2023-04-15T00:57:12.426Z,6.3214
2023-04-15T00:58:20.495Z,6.9571
2023-04-15T00:59:28.676Z,4.6429
2023-04-15T01:00:36.651Z,8.3786
2023-04-15T01:01:44.893Z,8.1571
2023-04-15T01:02:53.041Z,5.3929
2023-04-15T01:04:00.846Z,5.3857
2023-04-15T01:05:08.893Z,6.7143
2023-04-15T01:06:16.994Z,6.0857
2023-04-15T01:07:25.050Z,4.6857
2023-04-15T01:08:33.065Z,5.7071
2023-04-15T01:09:41.172Z,6.5500
2023-04-15T01:10:49.350Z,5.4786
2023-04-15T01:11:57.277Z,8.7214
2023-04-15T01:13:05.353Z,7.1143
2023-04-15T01:14:13.567Z,7.3286
2023-04-15T01:15:21.501Z,5.5500
2023-04-15T01:16:29.721Z,4.9500
2023-04-15T01:17:37.795Z,6.8857
2023-04-15T01:18:45.794Z,6.2143
2023-04-15T01:19:53.831Z,6.3571
2023-04-15T01:21:01.875Z,6.5857
2023-04-15T01:22:09.953Z,5.0143
2023-04-15T01:23:18.138Z,6.5786
2023-04-15T01:24:26.059Z,5.5714
2023-04-15T01:25:34.071Z,6.2786
2023-04-15T01:26:43.505Z,5.3857
2023-04-15T01:27:50.291Z,6.2429
2023-04-15T01:28:58.458Z,7.7429
2023-04-15T01:30:06.433Z,4.6143
2023-04-15T01:31:14.483Z,4.8429
2023-04-15T01:32:22.563Z,5.8714
2023-04-15T01:33:30.597Z,5.5714
2023-04-15T01:34:38.561Z,4.6786
2023-04-15T01:35:46.732Z,6.3357
2023-04-15T01:36:54.767Z,6.6714
2023-04-15T01:38:02.984Z,5.3071
2023-04-15T01:39:10.895Z,4.7357
2023-04-15T01:40:18.994Z,6.4643
2023-04-15T01:41:27.068Z,5.5714
2023-04-15T01:42:35.253Z,5.4214
2023-04-15T01:43:43.168Z,6.1286
2023-04-15T01:44:51.234Z,5.8500
2023-04-15T01:45:59.233Z,5.6643
2023-04-15T01:47:07.358Z,4.6357
2023-04-15T01:48:15.470Z,5.4071
2023-04-15T01:49:23.563Z,6.7929
2023-04-15T01:50:31.559Z,4.4143
2023-04-15T01:51:39.791Z,5.5929
2023-04-15T01:52:47.692Z,5.5071
2023-04-15T01:53:55.710Z,4.6929
2023-04-15T01:55:03.850Z,5.1286
2023-04-15T01:56:11.874Z,5.2571
2023-04-15T01:57:20.053Z,7.2929
2023-04-15T01:58:28.030Z,4.9857
2023-04-15T01:59:36.246Z,4.0429
2023-04-15T02:00:44.219Z,6.2000
2023-04-15T02:01:52.283Z,5.8143
2023-04-15T02:03:00.423Z,6.0929
2023-04-15T02:04:08.449Z,7.3929
2023-04-15T02:05:16.395Z,4.7429
2023-04-15T02:06:24.492Z,4.1500
2023-04-15T02:07:32.567Z,6.5714
2023-04-15T02:08:40.814Z,6.7929
2023-04-15T02:09:48.693Z,6.2357
2023-04-15T02:10:56.782Z,5.3429
2023-04-15T02:12:04.829Z,5.9857
2023-04-15T02:13:13.010Z,4.8143
2023-04-15T02:14:20.977Z,6.0643
2023-04-15T02:15:29.103Z,6.1143
2023-04-15T02:16:37.058Z,5.9143
2023-04-15T02:17:45.197Z,8.3214
2023-04-15T02:18:53.388Z,5.4571
2023-04-15T02:20:01.310Z,4.9357
2023-04-15T02:21:09.525Z,6.0000
2023-04-15T02:22:17.373Z,5.4000
2023-04-15T02:23:25.562Z,5.5214
2023-04-15T02:24:33.649Z,6.5857
2023-04-15T02:25:41.714Z,4.8857
2023-04-15T02:26:49.716Z,5.4929
2023-04-15T02:27:57.797Z,4.5500
2023-04-15T02:29:06.039Z,4.6714
2023-04-15T02:30:14.014Z,6.6643
2023-04-15T02:31:22.095Z,6.5571
2023-04-15T02:32:30.140Z,5.9786
2023-04-15T02:33:38.304Z,4.5000
2023-04-15T02:34:46.272Z,4.7357
2023-04-15T02:35:54.371Z,4.2214
2023-04-15T02:37:02.607Z,7.5786
2023-04-15T02:38:10.464Z,7.9000
2023-04-15T02:39:18.562Z,6.7214
2023-04-15T02:40:26.607Z,4.4929
2023-04-15T02:41:34.800Z,5.0857
2023-04-15T02:42:42.803Z,3.3357
2023-04-15T02:43:50.798Z,5.2429
2023-04-15T02:44:58.944Z,5.2714
2023-04-15T02:46:07.003Z,3.6071
2023-04-15T02:47:15.002Z,3.9214
2023-04-15T02:48:22.987Z,2.9286
2023-04-15T02:49:31.126Z,3.5000
2023-04-15T02:50:39.821Z,3.4571
2023-04-15T02:51:47.285Z,3.1214
2023-04-15T02:52:55.393Z,3.5357
2023-04-15T02:54:03.383Z,3.6143
2023-04-15T02:55:11.439Z,3.6786
2023-04-15T02:56:19.646Z,4.7429
2023-04-15T02:57:27.691Z,2.0643
2023-04-15T02:58:35.641Z,3.3786
2023-04-15T02:59:43.709Z,2.9357
2023-04-15T03:00:51.908Z,3.6000
2023-04-15T03:01:59.914Z,3.1286
2023-04-15T03:03:08.075Z,3.4929
2023-04-15T03:04:16.232Z,4.2786
2023-04-15T03:05:24.038Z,3.4929
2023-04-15T03:06:32.186Z,4.5714
2023-04-15T03:07:40.213Z,3.5857
2023-04-15T03:08:48.380Z,3.9143
2023-04-15T03:09:56.311Z,3.4571
2023-04-15T03:11:04.370Z,3.0500
2023-04-15T03:12:12.597Z,4.7786
2023-04-15T03:13:20.613Z,3.7929
2023-04-15T03:14:28.597Z,2.8643
2023-04-15T03:15:36.685Z,2.2071
2023-04-15T03:16:44.754Z,5.0071
2023-04-15T03:17:52.756Z,3.7929
2023-04-15T03:19:01.193Z,4.1714
2023-04-15T03:20:09.089Z,3.8357
2023-04-15T03:21:16.981Z,4.0571
2023-04-15T03:22:24.957Z,4.4786
2023-04-15T03:23:33.236Z,3.3714
2023-04-15T03:24:41.323Z,4.2071
2023-04-15T03:25:49.263Z,3.2571
2023-04-15T03:26:57.295Z,3.9929
2023-04-15T03:28:05.457Z,3.9429
2023-04-15T03:29:13.393Z,3.5143
2023-04-15T03:30:21.552Z,2.7357
2023-04-15T03:31:29.675Z,3.2929
2023-04-15T03:32:37.659Z,4.4786
2023-04-15T03:33:45.859Z,2.7429
2023-04-15T03:34:53.710Z,3.3143
2023-04-15T03:36:01.855Z,2.9571
2023-04-15T03:37:09.901Z,2.8571
2023-04-15T03:38:17.997Z,3.2500
2023-04-15T03:39:25.997Z,2.9143
2023-04-15T03:40:34.098Z,2.4429
2023-04-15T03:41:42.128Z,2.3857
2023-04-15T03:42:50.401Z,3.0000
2023-04-15T03:43:58.272Z,3.7000
2023-04-15T03:45:06.345Z,4.3357
2023-04-15T03:46:14.365Z,3.0929
2023-04-15T03:47:22.514Z,4.4214
2023-04-15T03:48:30.531Z,3.9643
2023-04-15T03:49:38.609Z,3.6357
2023-04-15T03:50:46.595Z,3.3500
2023-04-15T03:51:54.721Z,4.1000
2023-04-15T03:53:02.931Z,2.9929
2023-04-15T03:54:10.788Z,2.1857
2023-04-15T03:55:18.943Z,3.0500
2023-04-15T03:56:26.923Z,4.4786
2023-04-15T03:57:35.070Z,2.7357
2023-04-15T03:58:43.119Z,2.2571
2023-04-15T03:59:51.152Z,3.2357
2023-04-15T04:00:59.231Z,2.7643
2023-04-15T04:02:07.647Z,3.5429
2023-04-15T04:03:15.559Z,2.5643
2023-04-15T04:04:23.534Z,3.2786
2023-04-15T04:05:31.472Z,3.9500
2023-04-15T04:06:39.590Z,4.9000
2023-04-15T04:07:47.552Z,2.9357
2023-04-15T04:08:55.743Z,2.6143
2023-04-15T04:10:03.862Z,3.4500
2023-04-15T04:11:11.867Z,3.4214
2023-04-15T04:12:19.904Z,3.3071
2023-04-15T04:13:28.157Z,3.2286
2023-04-15T04:14:36.041Z,4.4000
2023-04-15T04:15:44.159Z,3.7286
2023-04-15T04:16:52.188Z,4.1786
2023-04-15T04:18:00.403Z,4.1429
2023-04-15T04:19:08.312Z,2.8643
2023-04-15T04:20:16.426Z,1.7500
2023-04-15T04:21:24.666Z,3.2714
2023-04-15T04:22:32.521Z,3.1929
2023-04-15T04:23:40.592Z,3.7929
2023-04-15T04:24:48.670Z,4.4071
2023-04-15T04:25:56.863Z,2.4429
2023-04-15T04:27:04.858Z,2.5571
2023-04-15T04:28:12.887Z,2.3143
2023-04-15T04:29:21.030Z,2.6786
2023-04-15T04:30:29.023Z,2.3500
2023-04-15T04:31:37.150Z,2.6571
2023-04-15T04:32:45.244Z,2.7857
2023-04-15T04:33:53.324Z,3.5714
2023-04-15T04:35:01.280Z,2.6286
2023-04-15T04:36:09.360Z,2.6500
2023-04-15T04:37:17.511Z,2.7286
2023-04-15T04:38:25.594Z,3.3643
2023-04-15T04:39:33.576Z,2.4071
2023-04-15T04:40:41.620Z,2.8571
2023-04-15T04:41:49.731Z,2.1357
2023-04-15T04:42:57.750Z,2.0714
2023-04-15T04:44:05.842Z,3.5857
2023-04-15T04:45:13.944Z,2.6357
2023-04-15T04:46:21.879Z,2.0571
2023-04-15T04:47:30.045Z,2.4929
2023-04-15T04:48:38.079Z,2.2143
2023-04-15T04:49:46.265Z,3.0214
2023-04-15T04:50:54.218Z,3.4500
2023-04-15T04:52:02.322Z,2.5857
2023-04-15T04:53:10.421Z,3.8929
2023-04-15T04:54:18.341Z,2.8214
2023-04-15T04:55:26.472Z,2.5286
2023-04-15T04:56:34.670Z,3.7857
2023-04-15T04:57:42.623Z,2.1000
2023-04-15T04:58:50.821Z,3.2714
2023-04-15T04:59:58.756Z,2.4071
2023-04-15T05:01:06.853Z,1.7929
2023-04-15T05:02:14.893Z,2.3714
2023-04-15T05:03:23.068Z,2.5857
2023-04-15T05:04:31.052Z,2.7357
2023-04-15T05:05:39.050Z,2.7000
2023-04-15T05:06:47.131Z,1.6643
2023-04-15T05:07:55.382Z,2.5857
2023-04-15T05:09:03.474Z,3.3786
2023-04-15T05:10:11.399Z,2.3214
2023-04-15T05:11:19.335Z,2.3857
2023-04-15T05:12:27.635Z,1.5214
2023-04-15T05:13:35.555Z,2.7857
2023-04-15T05:14:43.604Z,3.3714
2023-04-15T05:15:51.887Z,2.8071
2023-04-15T05:16:59.758Z,2.1714
2023-04-15T05:18:07.889Z,1.9500
2023-04-15T05:19:15.866Z,4.1357
2023-04-15T05:20:24.025Z,5.9929
2023-04-15T05:21:31.991Z,2.4357
2023-04-15T05:22:40.131Z,2.8214
2023-04-15T05:23:48.049Z,2.8929
2023-04-15T05:24:56.202Z,3.2143
2023-04-15T05:26:04.256Z,2.4000
2023-04-15T05:27:12.376Z,2.4571
2023-04-15T05:28:20.360Z,1.9357
2023-04-15T05:29:28.386Z,2.5357
2023-04-15T05:30:36.557Z,4.0429
2023-04-15T05:31:44.699Z,2.2429
2023-04-15T05:32:52.734Z,1.9857
2023-04-15T05:34:00.753Z,3.7143
2023-04-15T05:35:08.936Z,1.5786
2023-04-15T05:36:16.861Z,2.8929
2023-04-15T05:37:24.975Z,3.1714
2023-04-15T05:38:33.078Z,2.3357
2023-04-15T05:39:41.127Z,3.2500
2023-04-15T05:40:49.206Z,2.9357
2023-04-15T05:41:57.193Z,2.8357
2023-04-15T05:43:05.486Z,2.8857
2023-04-15T05:44:13.324Z,3.8000
2023-04-15T05:45:21.312Z,5.0857
2023-04-15T05:46:29.484Z,3.2000
2023-04-15T05:47:37.776Z,2.0071
2023-04-15T05:48:45.589Z,2.1286
2023-04-15T05:49:53.717Z,3.6571
2023-04-15T05:51:01.779Z,3.2357
2023-04-15T05:52:09.810Z,3.2929
2023-04-15T05:53:17.901Z,2.9643
2023-04-15T05:54:25.931Z,2.7214
2023-04-15T05:55:34.016Z,2.5571
2023-04-15T05:56:42.091Z,2.6714
2023-04-15T05:57:50.088Z,2.4929
2023-04-15T05:58:58.304Z,1.8500
2023-04-15T06:00:06.214Z,2.8286
2023-04-15T06:01:14.377Z,3.4214
2023-04-15T06:02:22.532Z,2.0143
2023-04-15T06:03:30.647Z,2.2429
2023-04-15T06:04:38.731Z,2.5714
2023-04-15T06:05:46.568Z,2.3500
2023-04-15T06:06:54.850Z,3.7000
2023-04-15T06:08:02.869Z,2.7214
2023-04-15T06:09:10.854Z,2.4214
2023-04-15T06:10:18.895Z,1.9357
2023-04-15T06:11:26.864Z,3.9429
2023-04-15T06:12:35.027Z,2.5357
2023-04-15T06:13:43.063Z,2.5071
2023-04-15T06:14:51.164Z,2.1929
2023-04-15T06:15:59.307Z,2.2071
2023-04-15T06:17:07.187Z,2.0429
2023-04-15T06:18:15.543Z,2.8214
2023-04-15T06:19:23.465Z,2.5000
2023-04-15T06:20:31.623Z,2.1500
2023-04-15T06:21:39.592Z,3.6357
2023-04-15T06:22:47.517Z,3.1643
2023-04-15T06:23:55.798Z,2.5214
2023-04-15T06:25:03.734Z,2.7500
2023-04-15T06:26:11.850Z,2.3214
2023-04-15T06:27:19.868Z,2.8071
2023-04-15T06:28:27.895Z,2.5714
2023-04-15T06:29:36.190Z,3.0929
2023-04-15T06:30:44.029Z,2.9214
2023-04-15T06:31:52.174Z,3.7714
2023-04-15T06:33:00.357Z,2.2000
2023-04-15T06:34:08.266Z,3.3071
2023-04-15T06:35:16.422Z,3.5429
2023-04-15T06:36:24.360Z,3.0500
2023-04-15T06:37:32.437Z,2.7714
2023-04-15T06:38:40.563Z,3.4500
2023-04-15T06:39:48.634Z,4.2786
2023-04-15T06:40:56.705Z,2.5357
2023-04-15T06:42:04.753Z,3.6571
2023-04-15T06:43:12.764Z,2.5643
2023-04-15T06:44:20.876Z,4.6357
2023-04-15T06:45:29.007Z,2.6643
2023-04-15T06:46:36.979Z,2.7357
2023-04-15T06:47:45.214Z,2.9429
2023-04-15T06:48:53.054Z,3.6000
2023-04-15T06:50:01.161Z,3.0500
2023-04-15T06:51:09.256Z,3.6143
2023-04-15T06:52:17.245Z,5.6357
2023-04-15T06:53:25.390Z,3.0143
2023-04-15T06:54:33.437Z,3.4429
2023-04-15T06:55:41.474Z,3.4286
2023-04-15T06:56:49.624Z,3.2714
2023-04-15T06:57:57.737Z,3.0000
2023-04-15T06:59:05.754Z,2.9429
2023-04-15T07:00:13.710Z,2.5214
2023-04-15T07:01:21.889Z,3.3286
2023-04-15T07:02:29.984Z,4.0071
2023-04-15T07:03:38.059Z,2.1571
2023-04-15T07:04:46.069Z,2.8214
2023-04-15T07:05:54.126Z,3.7714
2023-04-15T07:07:02.224Z,3.3857
2023-04-15T07:08:10.378Z,3.3929
2023-04-15T07:09:18.263Z,3.1571
2023-04-15T07:10:26.485Z,2.8857
2023-04-15T07:11:34.418Z,3.3071
2023-04-15T07:12:42.486Z,3.4071
2023-04-15T07:13:50.655Z,4.0786
2023-04-15T07:14:58.524Z,3.1929
2023-04-15T07:16:06.642Z,3.3000
2023-04-15T07:17:14.778Z,2.3714
2023-04-15T07:18:22.855Z,3.6786
2023-04-15T07:19:30.949Z,4.4857
2023-04-15T07:20:38.955Z,3.9143
2023-04-15T07:21:46.999Z,2.1000
2023-04-15T07:22:55.059Z,4.0214
2023-04-15T07:24:03.115Z,2.7357
2023-04-15T07:25:11.149Z,4.4143
2023-04-15T07:26:19.150Z,4.2429
2023-04-15T07:27:27.209Z,2.8071
2023-04-15T07:28:35.459Z,3.1571
2023-04-15T07:29:43.486Z,4.2357
2023-04-15T07:30:51.499Z,3.0357
2023-04-15T07:31:59.479Z,4.5071
2023-04-15T07:33:07.693Z,2.9929
2023-04-15T07:34:15.803Z,4.7571
2023-04-15T07:35:23.769Z,4.5071
2023-04-15T07:36:31.941Z,4.0357
2023-04-15T07:37:39.876Z,2.8500
2023-04-15T07:38:47.860Z,3.6214
2023-04-15T07:39:55.999Z,4.4500
2023-04-15T07:41:04.120Z,4.8500
2023-04-15T07:42:12.217Z,4.5714
2023-04-15T07:43:20.228Z,3.3571
2023-04-15T07:44:28.457Z,4.5571
2023-04-15T07:45:36.648Z,3.7857
2023-04-15T07:46:44.390Z,3.7643
2023-04-15T07:47:52.481Z,3.7429
2023-04-15T07:49:01.018Z,4.0071
2023-04-15T07:50:08.574Z,4.3500
2023-04-15T07:51:16.617Z,4.1571
2023-04-15T07:52:24.583Z,3.9786
2023-04-15T07:53:32.893Z,3.1714
2023-04-15T07:54:40.929Z,3.8286
2023-04-15T07:55:48.850Z,3.6071
2023-04-15T07:56:57.018Z,4.6643
2023-04-15T07:58:05.024Z,3.3714
2023-04-15T07:59:13.106Z,2.7357
2023-04-15T08:00:21.137Z,3.5643
2023-04-15T08:01:29.186Z,4.6214
2023-04-15T08:02:38.982Z,3.4429
2023-04-15T08:03:50.272Z,4.3067
2023-04-15T08:04:58.446Z,4.9857
2023-04-15T08:06:06.296Z,5.4000
2023-04-15T08:07:14.346Z,3.5000
2023-04-15T08:08:22.442Z,3.4214
2023-04-15T08:09:30.623Z,4.3429
2023-04-15T08:10:38.484Z,3.9929
2023-04-15T08:11:46.615Z,4.3571
2023-04-15T08:12:54.789Z,4.7143
2023-04-15T08:14:02.889Z,5.3714
2023-04-15T08:15:10.845Z,4.8000
2023-04-15T08:16:18.975Z,3.3643
2023-04-15T08:17:27.000Z,3.0786
2023-04-15T08:18:34.983Z,3.4000
2023-04-15T08:19:43.136Z,4.1357
2023-04-15T08:20:51.265Z,4.5786
2023-04-15T08:21:59.206Z,3.0429
2023-04-15T08:23:07.261Z,3.5714
2023-04-15T08:24:15.288Z,4.1929
2023-04-15T08:25:23.396Z,4.3071
2023-04-15T08:26:31.441Z,3.7143
2023-04-15T08:27:39.516Z,3.9857
2023-04-15T08:28:47.588Z,3.8786
2023-04-15T08:29:55.754Z,4.6786
2023-04-15T08:31:03.644Z,3.5000
2023-04-15T08:32:11.984Z,4.0500
2023-04-15T08:33:19.827Z,4.7643
2023-04-15T08:34:27.913Z,3.3786
2023-04-15T08:35:35.946Z,4.2143
2023-04-15T08:36:44.062Z,4.5929
2023-04-15T08:37:52.127Z,4.6500
2023-04-15T08:39:00.355Z,4.5071
2023-04-15T08:40:08.350Z,3.4214
2023-04-15T08:41:16.376Z,4.1929
2023-04-15T08:42:24.371Z,4.4000
2023-04-15T08:43:32.510Z,4.5857
2023-04-15T08:44:40.522Z,5.3071
2023-04-15T08:45:48.632Z,3.8857
2023-04-15T08:46:56.821Z,4.0643
2023-04-15T08:48:04.774Z,4.5357
2023-04-15T08:49:12.897Z,4.6786
2023-04-15T08:50:20.735Z,3.2357
2023-04-15T08:51:29.078Z,3.1857
2023-04-15T08:52:36.970Z,3.1071
2023-04-15T08:53:45.154Z,4.6786
2023-04-15T08:54:53.138Z,4.5714
2023-04-15T08:56:01.079Z,4.9071
2023-04-15T08:57:09.179Z,3.9929
2023-04-15T08:58:17.287Z,4.5929
2023-04-15T08:59:25.357Z,3.9857
2023-04-15T09:00:33.439Z,4.1357
2023-04-15T09:01:41.427Z,3.3071
2023-04-15T09:02:49.855Z,3.9714
2023-04-15T09:03:57.692Z,4.8643
2023-04-15T09:05:05.650Z,3.2214
2023-04-15T09:06:13.778Z,5.0071
2023-04-15T09:07:21.777Z,4.7214
2023-04-15T09:08:29.862Z,3.2786
2023-04-15T09:09:38.083Z,4.1357
2023-04-15T09:10:45.946Z,4.6500
2023-04-15T09:11:54.095Z,2.9000
2023-04-15T09:13:02.128Z,3.7429
2023-04-15T09:14:10.157Z,3.8643
2023-04-15T09:15:18.206Z,4.6786
2023-04-15T09:16:26.343Z,4.1714
2023-04-15T09:17:34.591Z,4.0357
2023-04-15T09:18:42.415Z,4.5571
2023-04-15T09:19:50.455Z,4.6214
2023-04-15T09:20:58.631Z,4.7214
2023-04-15T09:22:06.712Z,3.4714
2023-04-15T09:23:14.640Z,4.2429
2023-04-15T09:24:22.802Z,4.4929
2023-04-15T09:25:32.815Z,4.7500
2023-04-15T09:26:43.816Z,4.2600
2023-04-15T09:27:51.690Z,4.1857
2023-04-15T09:28:59.909Z,3.3786
2023-04-15T09:30:07.870Z,4.5857
2023-04-15T09:31:16.009Z,3.9214
2023-04-15T09:32:24.114Z,4.2714
2023-04-15T09:33:32.119Z,5.2500
2023-04-15T09:34:40.054Z,3.3857
2023-04-15T09:35:48.215Z,5.6571
2023-04-15T09:36:56.384Z,6.0643
2023-04-15T09:38:04.329Z,5.1214
2023-04-15T09:39:12.475Z,3.2143
2023-04-15T09:40:20.383Z,3.5000
2023-04-15T09:41:28.569Z,3.7000
2023-04-15T09:42:36.716Z,2.4929
2023-04-15T09:43:44.813Z,3.3571
2023-04-15T09:44:52.705Z,3.6786
2023-04-15T09:46:00.793Z,5.0286
2023-04-15T09:47:08.904Z,3.7286
2023-04-15T09:48:16.821Z,3.8143
2023-04-15T09:49:25.077Z,3.0714
2023-04-15T09:50:32.994Z,3.9429
2023-04-15T09:51:42.185Z,6.1929
2023-04-15T09:52:49.150Z,4.9000
2023-04-15T09:53:57.131Z,4.7071
2023-04-15T09:55:05.191Z,4.1643
2023-04-15T09:56:13.339Z,3.3286
2023-04-15T09:57:21.407Z,3.4571
2023-04-15T09:58:29.595Z,4.7286
2023-04-15T09:59:37.417Z,3.6571
2023-04-15T10:00:45.487Z,3.8000
2023-04-15T10:01:53.661Z,5.0357
2023-04-15T10:03:01.745Z,3.3786
2023-04-15T10:04:09.868Z,4.2286
2023-04-15T10:05:17.733Z,4.3929
2023-04-15T10:06:25.784Z,3.5000
2023-04-15T10:07:33.971Z,2.7286
2023-04-15T10:08:42.011Z,3.6429
2023-04-15T10:09:50.207Z,3.6357
2023-04-15T10:10:58.126Z,5.3571
2023-04-15T10:12:06.109Z,2.5500
2023-04-15T10:13:14.408Z,3.7714
2023-04-15T10:14:22.339Z,5.6500
2023-04-15T10:15:30.281Z,3.9857
2023-04-15T10:16:38.416Z,3.7143
2023-04-15T10:17:46.535Z,4.1071
2023-04-15T10:18:54.579Z,3.5500
2023-04-15T10:20:02.526Z,4.6643
2023-04-15T10:21:10.888Z,3.2786
2023-04-15T10:22:18.737Z,4.1357
2023-04-15T10:23:26.791Z,5.4143
2023-04-15T10:24:34.943Z,3.3071
2023-04-15T10:25:42.858Z,4.5000
2023-04-15T10:26:50.882Z,3.8857
2023-04-15T10:27:59.088Z,4.3786
2023-04-15T10:29:07.193Z,3.4786
2023-04-15T10:30:15.230Z,5.9571
2023-04-15T10:31:23.323Z,4.1071
2023-04-15T10:32:31.340Z,4.3929
2023-04-15T10:33:39.359Z,5.8929
2023-04-15T10:34:47.410Z,3.5643
2023-04-15T10:35:55.590Z,4.4000
2023-04-15T10:37:03.760Z,4.7357
2023-04-15T10:38:11.616Z,3.5571
2023-04-15T10:39:19.721Z,3.7071
2023-04-15T10:40:27.720Z,3.3857
2023-04-15T10:41:35.832Z,4.1357
2023-04-15T10:42:43.856Z,3.6214
2023-04-15T10:43:51.982Z,4.0071
2023-04-15T10:44:59.999Z,3.7643
2023-04-15T10:46:08.107Z,4.0929
2023-04-15T10:47:16.151Z,3.8857
2023-04-15T10:48:24.409Z,5.3786
2023-04-15T10:49:32.342Z,4.1857
2023-04-15T10:50:40.376Z,5.2429
2023-04-15T10:51:48.376Z,3.3786
2023-04-15T10:52:56.497Z,5.0571
2023-04-15T10:54:04.724Z,4.0714
2023-04-15T10:55:12.706Z,3.5857
2023-04-15T10:56:20.656Z,3.7000
2023-04-15T10:57:28.765Z,5.2000
2023-04-15T10:58:36.848Z,3.9143
2023-04-15T10:59:44.898Z,4.7929
2023-04-15T11:00:52.985Z,4.0286
2023-04-15T11:02:01.081Z,4.3929
2023-04-15T11:03:09.472Z,4.0286
2023-04-15T11:04:17.151Z,5.6929
2023-04-15T11:05:25.164Z,5.3929
2023-04-15T11:06:33.446Z,3.4643
2023-04-15T11:07:41.300Z,5.1357
2023-04-15T11:08:49.418Z,4.1500
2023-04-15T11:09:57.507Z,3.2000
2023-04-15T11:11:05.492Z,4.0214
2023-04-15T11:12:13.663Z,4.8500
2023-04-15T11:13:21.613Z,5.2500
2023-04-15T11:14:29.826Z,4.9000
2023-04-15T11:15:37.709Z,4.9143
2023-04-15T11:16:45.869Z,4.5571
2023-04-15T11:17:54.115Z,5.1429
2023-04-15T11:19:01.961Z,4.0357
2023-04-15T11:20:10.011Z,4.0571
2023-04-15T11:21:18.207Z,6.2286
2023-04-15T11:22:26.100Z,3.6929
2023-04-15T11:23:34.310Z,4.5571
2023-04-15T11:24:42.285Z,4.7357
2023-04-15T11:25:50.312Z,3.2929
2023-04-15T11:26:58.352Z,4.9071
2023-04-15T11:28:06.393Z,4.0643
2023-04-15T11:29:14.555Z,4.1643
2023-04-15T11:30:22.536Z,4.2000
2023-04-15T11:31:30.608Z,4.1643
2023-04-15T11:32:38.777Z,3.8357
2023-04-15T11:33:46.711Z,3.3500
2023-04-15T11:34:54.768Z,3.7000
2023-04-15T11:36:02.919Z,4.2643
2023-04-15T11:37:10.891Z,6.1571
2023-04-15T11:38:18.947Z,6.2143
2023-04-15T11:39:27.095Z,5.8143
2023-04-15T11:40:35.162Z,6.7000
2023-04-15T11:41:43.035Z,4.9429
2023-04-15T11:42:51.254Z,3.3071
2023-04-15T11:43:59.219Z,5.9857
2023-04-15T11:45:07.303Z,5.9429
2023-04-15T11:46:15.424Z,5.3643
2023-04-15T11:47:23.335Z,4.5929
2023-04-15T11:48:31.464Z,5.1571
2023-04-15T11:49:39.579Z,5.6929
2023-04-15T11:50:47.695Z,4.4929
2023-04-15T11:51:55.566Z,5.6214
2023-04-15T11:53:04.373Z,3.8357
2023-04-15T11:54:11.896Z,3.3214
2023-04-15T11:55:19.851Z,5.2357
2023-04-15T11:56:27.911Z,4.5143
2023-04-15T11:57:36.035Z,6.9000
2023-04-15T11:58:44.058Z,5.0071
2023-04-15T11:59:52.220Z,2.8071
2023-04-15T12:01:00.129Z,4.6071
2023-04-15T12:02:08.282Z,5.9714
2023-04-15T12:03:16.436Z,3.6929
2023-04-15T12:04:25.933Z,4.5571
2023-04-15T12:05:32.418Z,5.2286
2023-04-15T12:06:40.450Z,5.6643
2023-04-15T12:07:48.517Z,4.5571
2023-04-15T12:08:56.808Z,5.4071
2023-04-15T12:10:04.685Z,5.1857
2023-04-15T12:11:12.711Z,3.1214
2023-04-15T12:12:20.818Z,3.2357
2023-04-15T12:13:28.806Z,3.4429
2023-04-15T12:14:36.875Z,3.5214
2023-04-15T12:15:45.028Z,4.5857
2023-04-15T12:16:53.007Z,4.1214
2023-04-15T12:18:01.089Z,3.9500
2023-04-15T12:19:09.125Z,3.4000
2023-04-15T12:20:17.273Z,4.3643
2023-04-15T12:21:25.354Z,3.9500
2023-04-15T12:22:33.317Z,2.9857
2023-04-15T12:23:41.501Z,3.8071
2023-04-15T12:24:49.466Z,3.1500
2023-04-15T12:25:57.535Z,3.7714
2023-04-15T12:27:05.724Z,3.1571
2023-04-15T12:28:13.607Z,3.0786
2023-04-15T12:29:21.661Z,2.6071
2023-04-15T12:30:29.869Z,2.7643
2023-04-15T12:31:37.967Z,3.5500
2023-04-15T12:32:45.865Z,2.6071
2023-04-15T12:33:53.910Z,2.8429
2023-04-15T12:35:02.076Z,2.5929
2023-04-15T12:36:10.054Z,3.5500
2023-04-15T12:37:18.110Z,3.7143
2023-04-15T12:38:26.298Z,2.6429
2023-04-15T12:39:34.279Z,2.7357
2023-04-15T12:40:42.322Z,2.4214
2023-04-15T12:41:50.426Z,2.9571
2023-04-15T12:42:58.409Z,2.4857
2023-04-15T12:44:06.710Z,2.0786
2023-04-15T12:45:14.523Z,2.5714
2023-04-15T12:46:22.740Z,4.0786
2023-04-15T12:47:30.713Z,4.9929
2023-04-15T12:48:38.738Z,2.5000
2023-04-15T12:49:46.800Z,3.0214
2023-04-15T12:50:54.842Z,2.9143
2023-04-15T12:52:02.971Z,3.0929
2023-04-15T12:53:11.079Z,3.0429
2023-04-15T12:54:19.102Z,2.0357
2023-04-15T12:55:27.144Z,2.8857
2023-04-15T12:56:35.288Z,2.0857
2023-04-15T12:57:43.257Z,2.8500
2023-04-15T12:58:51.281Z,2.2071
2023-04-15T12:59:59.415Z,2.1571
2023-04-15T13:01:07.410Z,2.5786
2023-04-15T13:02:15.599Z,2.5643
2023-04-15T13:03:23.832Z,2.6571
2023-04-15T13:04:31.808Z,2.2857
2023-04-15T13:05:39.705Z,2.3643
2023-04-15T13:06:47.791Z,2.9571
2023-04-15T13:07:55.888Z,2.4714
2023-04-15T13:09:05.239Z,2.5000
2023-04-15T13:10:12.099Z,2.9857
2023-04-15T13:11:20.013Z,2.7929
2023-04-15T13:12:28.063Z,2.6429
2023-04-15T13:13:36.101Z,3.0143
2023-04-15T13:14:44.149Z,3.1643
2023-04-15T13:15:52.143Z,3.5500
2023-04-15T13:17:00.229Z,2.5000
2023-04-15T13:18:08.368Z,2.6643
2023-04-15T13:19:16.508Z,2.1714
2023-04-15T13:20:24.577Z,2.0571
2023-04-15T13:21:32.555Z,1.9929
2023-04-15T13:22:40.699Z,3.4143
2023-04-15T13:23:48.652Z,2.1286
2023-04-15T13:24:56.723Z,3.1857
2023-04-15T13:26:04.826Z,2.0643
2023-04-15T13:27:12.886Z,1.6071
2023-04-15T13:28:20.995Z,3.3214
2023-04-15T13:29:28.963Z,2.8071
2023-04-15T13:30:37.056Z,1.7286
2023-04-15T13:31:45.136Z,3.4571
2023-04-15T13:32:53.182Z,2.0286
2023-04-15T13:34:01.359Z,2.0714
2023-04-15T13:35:09.336Z,1.8571
2023-04-15T13:36:17.329Z,1.5500
2023-04-15T13:37:25.526Z,1.5286
2023-04-15T13:38:33.474Z,1.8500
2023-04-15T13:39:41.516Z,2.2071
2023-04-15T13:40:49.679Z,2.7643
2023-04-15T13:41:57.633Z,2.4000
2023-04-15T13:43:05.800Z,2.8714
2023-04-15T13:44:13.771Z,2.2143
2023-04-15T13:45:21.852Z,3.5214
2023-04-15T13:46:29.997Z,2.7500
2023-04-15T13:47:38.079Z,2.9357
2023-04-15T13:48:46.118Z,2.8500
2023-04-15T13:49:54.107Z,2.2143
2023-04-15T13:51:02.161Z,2.7429
2023-04-15T13:52:10.268Z,1.8714
2023-04-15T13:53:18.267Z,1.8357
2023-04-15T13:54:26.355Z,2.1571
2023-04-15T13:55:39.306Z,2.0600
2023-04-15T13:56:47.375Z,1.6857
2023-04-15T13:57:55.440Z,2.1857
2023-04-15T13:59:03.502Z,2.1357
2023-04-15T14:00:11.552Z,1.3143
2023-04-15T14:01:19.651Z,2.7857
2023-04-15T14:02:27.897Z,1.7786
2023-04-15T14:03:36.028Z,1.2071
2023-04-15T14:04:43.987Z,1.6857
2023-04-15T14:05:51.870Z,1.7643
2023-04-15T14:06:59.907Z,1.7000
2023-04-15T14:08:07.921Z,1.4357
2023-04-15T14:09:16.036Z,2.7929